sensor_id;sensor_type;location;lat;lon;timestamp;pressure;altitude;pressure_sealevel;temperature;humidity
11680;BME280;5896;42.686;23.142;2024-02-04T00:01:47;93525.84;;;5.93;61.23
11680;BME280;5896;42.686;23.142;2024-02-04T00:04:12;93530.81;;;5.95;60.54
11680;BME280;5896;42.686;23.142;2024-02-04T00:06:37;93520.13;;;5.83;61.68
11680;BME280;5896;42.686;23.142;2024-02-04T00:09:03;93511.66;;;5.82;60.99
11680;BME280;5896;42.686;23.142;2024-02-04T00:11:30;93515.22;;;5.81;61.35
11680;BME280;5896;42.686;23.142;2024-02-04T00:13:55;93529.56;;;5.68;62.55
11680;BME280;5896;42.686;23.142;2024-02-04T00:16:20;93505.03;;;5.73;62.55
11680;BME280;5896;42.686;23.142;2024-02-04T00:18:46;93510.53;;;5.85;62.52
11680;BME280;5896;42.686;23.142;2024-02-04T00:21:11;93523.69;;;5.82;62.48
11680;BME280;5896;42.686;23.142;2024-02-04T00:23:37;93521.28;;;5.66;63.05
11680;BME280;5896;42.686;23.142;2024-02-04T00:26:02;93517.84;;;5.73;63.25
11680;BME280;5896;42.686;23.142;2024-02-04T00:28:28;93517.66;;;5.75;62.92
11680;BME280;5896;42.686;23.142;2024-02-04T00:30:54;93521.47;;;5.79;62.53
11680;BME280;5896;42.686;23.142;2024-02-04T00:33:21;93519.97;;;5.70;63.61
11680;BME280;5896;42.686;23.142;2024-02-04T00:35:47;93525.25;;;5.68;62.85
11680;BME280;5896;42.686;23.142;2024-02-04T00:38:12;93512.19;;;5.63;63.01
11680;BME280;5896;42.686;23.142;2024-02-04T00:40:38;93523.09;;;5.42;63.71
11680;BME280;5896;42.686;23.142;2024-02-04T00:43:03;93518.63;;;5.59;63.84
11680;BME280;5896;42.686;23.142;2024-02-04T00:45:28;93513.75;;;5.64;63.45
11680;BME280;5896;42.686;23.142;2024-02-04T00:47:54;93515.00;;;5.68;63.27
11680;BME280;5896;42.686;23.142;2024-02-04T00:50:19;93517.94;;;5.65;63.40
11680;BME280;5896;42.686;23.142;2024-02-04T00:52:44;93515.97;;;5.67;63.62
11680;BME280;5896;42.686;23.142;2024-02-04T00:55:10;93514.75;;;5.63;63.60
11680;BME280;5896;42.686;23.142;2024-02-04T00:57:36;93502.25;;;5.45;64.69
11680;BME280;5896;42.686;23.142;2024-02-04T01:00:01;93504.25;;;5.58;65.30
11680;BME280;5896;42.686;23.142;2024-02-04T01:02:27;93495.78;;;5.72;64.57
11680;BME280;5896;42.686;23.142;2024-02-04T01:04:53;93517.16;;;5.65;65.28
11680;BME280;5896;42.686;23.142;2024-02-04T01:07:18;93502.41;;;5.81;65.04
11680;BME280;5896;42.686;23.142;2024-02-04T01:09:44;93509.38;;;5.88;64.61
11680;BME280;5896;42.686;23.142;2024-02-04T01:12:09;93502.63;;;5.95;64.81
11680;BME280;5896;42.686;23.142;2024-02-04T01:14:34;93513.81;;;5.94;64.70
11680;BME280;5896;42.686;23.142;2024-02-04T01:17:00;93514.97;;;5.91;64.31
11680;BME280;5896;42.686;23.142;2024-02-04T01:19:25;93523.91;;;5.95;64.83
11680;BME280;5896;42.686;23.142;2024-02-04T01:21:51;93507.75;;;5.95;64.59
11680;BME280;5896;42.686;23.142;2024-02-04T01:24:16;93509.00;;;5.91;64.57
11680;BME280;5896;42.686;23.142;2024-02-04T01:26:42;93506.94;;;5.94;64.64
11680;BME280;5896;42.686;23.142;2024-02-04T01:29:07;93512.91;;;5.86;65.26
11680;BME280;5896;42.686;23.142;2024-02-04T01:31:33;93502.66;;;5.86;65.17
11680;BME280;5896;42.686;23.142;2024-02-04T01:33:58;93493.03;;;5.89;65.54
11680;BME280;5896;42.686;23.142;2024-02-04T01:36:24;93506.44;;;5.91;65.39
11680;BME280;5896;42.686;23.142;2024-02-04T01:38:49;93502.88;;;6.00;65.59
11680;BME280;5896;42.686;23.142;2024-02-04T01:41:14;93493.84;;;6.04;65.16
11680;BME280;5896;42.686;23.142;2024-02-04T01:43:40;93499.34;;;6.01;65.55
11680;BME280;5896;42.686;23.142;2024-02-04T01:46:05;93501.63;;;5.96;65.40
11680;BME280;5896;42.686;23.142;2024-02-04T01:48:31;93498.34;;;6.02;65.32
11680;BME280;5896;42.686;23.142;2024-02-04T01:50:58;93497.31;;;5.96;65.50
11680;BME280;5896;42.686;23.142;2024-02-04T01:53:25;93493.31;;;6.08;64.93
11680;BME280;5896;42.686;23.142;2024-02-04T01:55:51;93487.59;;;6.06;64.78
11680;BME280;5896;42.686;23.142;2024-02-04T01:58:17;93492.00;;;5.98;65.70
11680;BME280;5896;42.686;23.142;2024-02-04T02:00:43;93500.31;;;6.00;65.68
11680;BME280;5896;42.686;23.142;2024-02-04T02:03:11;93484.84;;;6.08;65.51
11680;BME280;5896;42.686;23.142;2024-02-04T02:05:37;93490.94;;;6.07;65.60
11680;BME280;5896;42.686;23.142;2024-02-04T02:08:02;93487.16;;;6.03;65.78
11680;BME280;5896;42.686;23.142;2024-02-04T02:10:28;93485.19;;;6.05;64.97
11680;BME280;5896;42.686;23.142;2024-02-04T02:12:57;93487.22;;;6.09;65.14
11680;BME280;5896;42.686;23.142;2024-02-04T02:15:29;93479.81;;;6.00;65.56
11680;BME280;5896;42.686;23.142;2024-02-04T02:18:10;93493.22;;;6.02;65.14
11680;BME280;5896;42.686;23.142;2024-02-04T02:24:00;93482.81;;;6.03;65.25
11680;BME280;5896;42.686;23.142;2024-02-04T02:26:28;93485.63;;;5.94;65.71
11680;BME280;5896;42.686;23.142;2024-02-04T02:28:53;93487.41;;;6.08;65.26
11680;BME280;5896;42.686;23.142;2024-02-04T02:31:18;93490.31;;;6.05;65.19
11680;BME280;5896;42.686;23.142;2024-02-04T02:33:44;93462.13;;;6.05;65.06
11680;BME280;5896;42.686;23.142;2024-02-04T02:36:13;93467.44;;;6.03;65.39
11680;BME280;5896;42.686;23.142;2024-02-04T02:39:08;93463.09;;;6.04;65.28
11680;BME280;5896;42.686;23.142;2024-02-04T02:41:35;93472.47;;;5.97;65.98
11680;BME280;5896;42.686;23.142;2024-02-04T02:44:03;93459.66;;;6.12;65.47
11680;BME280;5896;42.686;23.142;2024-02-04T02:46:30;93449.06;;;6.15;65.33
11680;BME280;5896;42.686;23.142;2024-02-04T02:48:56;93453.00;;;6.17;65.67
11680;BME280;5896;42.686;23.142;2024-02-04T02:51:22;93466.13;;;6.07;65.63
11680;BME280;5896;42.686;23.142;2024-02-04T02:53:47;93462.66;;;6.15;65.34
11680;BME280;5896;42.686;23.142;2024-02-04T02:56:12;93450.72;;;6.22;65.14
11680;BME280;5896;42.686;23.142;2024-02-04T02:58:38;93465.56;;;6.27;65.09
11680;BME280;5896;42.686;23.142;2024-02-04T03:01:03;93457.50;;;6.30;64.98
11680;BME280;5896;42.686;23.142;2024-02-04T03:03:29;93463.56;;;6.44;64.92
11680;BME280;5896;42.686;23.142;2024-02-04T03:05:54;93464.50;;;6.57;64.26
11680;BME280;5896;42.686;23.142;2024-02-04T03:08:19;93451.44;;;6.74;64.45
11680;BME280;5896;42.686;23.142;2024-02-04T03:10:45;93453.06;;;6.81;63.87
11680;BME280;5896;42.686;23.142;2024-02-04T03:13:10;93467.88;;;6.79;63.40
11680;BME280;5896;42.686;23.142;2024-02-04T03:15:35;93469.75;;;6.92;63.11
11680;BME280;5896;42.686;23.142;2024-02-04T03:18:01;93463.97;;;7.05;62.68
11680;BME280;5896;42.686;23.142;2024-02-04T03:20:26;93466.75;;;7.10;62.60
11680;BME280;5896;42.686;23.142;2024-02-04T03:22:51;93470.47;;;7.07;62.51
11680;BME280;5896;42.686;23.142;2024-02-04T03:25:17;93469.97;;;6.91;63.25
11680;BME280;5896;42.686;23.142;2024-02-04T03:27:42;93473.75;;;6.95;62.95
11680;BME280;5896;42.686;23.142;2024-02-04T03:30:08;93475.69;;;6.71;63.22
11680;BME280;5896;42.686;23.142;2024-02-04T03:32:33;93455.34;;;6.70;63.94
11680;BME280;5896;42.686;23.142;2024-02-04T03:35:02;93461.38;;;6.41;64.70
11680;BME280;5896;42.686;23.142;2024-02-04T03:37:27;93452.31;;;6.60;64.00
11680;BME280;5896;42.686;23.142;2024-02-04T03:39:53;93439.28;;;6.61;64.46
11680;BME280;5896;42.686;23.142;2024-02-04T03:42:18;93421.53;;;6.60;64.71
11680;BME280;5896;42.686;23.142;2024-02-04T03:44:46;93427.13;;;6.70;64.71
11680;BME280;5896;42.686;23.142;2024-02-04T03:47:12;93447.84;;;6.68;64.79
11680;BME280;5896;42.686;23.142;2024-02-04T03:49:37;93437.38;;;6.70;65.06
11680;BME280;5896;42.686;23.142;2024-02-04T03:52:03;93418.97;;;6.60;64.54
11680;BME280;5896;42.686;23.142;2024-02-04T03:54:28;93441.34;;;6.51;66.10
11680;BME280;5896;42.686;23.142;2024-02-04T03:56:54;93436.94;;;6.66;65.52
11680;BME280;5896;42.686;23.142;2024-02-04T03:59:19;93445.75;;;6.57;65.56
11680;BME280;5896;42.686;23.142;2024-02-04T04:01:51;93464.06;;;6.54;65.53
11680;BME280;5896;42.686;23.142;2024-02-04T04:04:18;93450.25;;;6.55;65.05
11680;BME280;5896;42.686;23.142;2024-02-04T04:06:45;93446.06;;;6.69;64.35
11680;BME280;5896;42.686;23.142;2024-02-04T04:09:11;93441.00;;;6.75;64.56
11680;BME280;5896;42.686;23.142;2024-02-04T04:11:36;93447.84;;;6.68;64.43
11680;BME280;5896;42.686;23.142;2024-02-04T04:14:01;93452.91;;;6.62;64.53
11680;BME280;5896;42.686;23.142;2024-02-04T04:16:27;93450.16;;;6.63;64.35
11680;BME280;5896;42.686;23.142;2024-02-04T04:18:52;93421.31;;;6.61;64.60
11680;BME280;5896;42.686;23.142;2024-02-04T04:21:18;93423.69;;;6.63;64.59
11680;BME280;5896;42.686;23.142;2024-02-04T04:23:43;93430.13;;;6.73;64.96
11680;BME280;5896;42.686;23.142;2024-02-04T04:26:09;93416.94;;;6.76;64.83
11680;BME280;5896;42.686;23.142;2024-02-04T04:28:34;93445.56;;;6.80;64.75
11680;BME280;5896;42.686;23.142;2024-02-04T04:31:00;93427.13;;;6.91;nan
11680;BME280;5896;42.686;23.142;2024-02-04T04:33:25;93437.59;;;6.90;64.24
11680;BME280;5896;42.686;23.142;2024-02-04T04:35:51;93442.53;;;6.91;64.11
11680;BME280;5896;42.686;23.142;2024-02-04T04:38:16;93415.78;;;7.07;64.77
11680;BME280;5896;42.686;23.142;2024-02-04T04:40:42;93438.53;;;7.10;64.20
11680;BME280;5896;42.686;23.142;2024-02-04T04:43:07;93437.31;;;7.06;63.55
11680;BME280;5896;42.686;23.142;2024-02-04T04:45:32;93445.16;;;6.98;64.10
11680;BME280;5896;42.686;23.142;2024-02-04T04:47:58;93444.84;;;6.86;64.13
11680;BME280;5896;42.686;23.142;2024-02-04T04:50:23;93450.91;;;6.78;64.37
11680;BME280;5896;42.686;23.142;2024-02-04T04:52:49;93461.63;;;6.89;63.96
11680;BME280;5896;42.686;23.142;2024-02-04T04:55:14;93458.53;;;6.93;64.40
11680;BME280;5896;42.686;23.142;2024-02-04T04:57:40;93460.28;;;6.93;64.15
11680;BME280;5896;42.686;23.142;2024-02-04T05:00:06;93456.13;;;6.92;63.87
11680;BME280;5896;42.686;23.142;2024-02-04T05:02:32;93462.50;;;6.96;63.72
11680;BME280;5896;42.686;23.142;2024-02-04T05:04:58;93458.53;;;6.93;64.14
11680;BME280;5896;42.686;23.142;2024-02-04T05:07:24;93455.91;;;6.87;63.86
11680;BME280;5896;42.686;23.142;2024-02-04T05:09:50;93445.88;;;6.92;64.04
11680;BME280;5896;42.686;23.142;2024-02-04T05:12:15;93440.69;;;6.85;64.54
11680;BME280;5896;42.686;23.142;2024-02-04T05:14:40;93441.47;;;6.86;64.00
11680;BME280;5896;42.686;23.142;2024-02-04T05:17:06;93442.28;;;6.86;63.37
11680;BME280;5896;42.686;23.142;2024-02-04T05:19:31;93453.81;;;6.75;63.95
11680;BME280;5896;42.686;23.142;2024-02-04T05:21:57;93468.47;;;6.81;63.42
11680;BME280;5896;42.686;23.142;2024-02-04T05:24:22;93470.84;;;6.62;63.81
11680;BME280;5896;42.686;23.142;2024-02-04T05:26:47;93480.06;;;6.77;62.92
11680;BME280;5896;42.686;23.142;2024-02-04T05:29:13;93468.72;;;6.65;63.14
11680;BME280;5896;42.686;23.142;2024-02-04T05:31:42;93463.91;;;6.77;63.28
11680;BME280;5896;42.686;23.142;2024-02-04T05:34:08;93471.22;;;6.80;63.09
11680;BME280;5896;42.686;23.142;2024-02-04T05:36:34;93454.81;;;6.74;63.58
11680;BME280;5896;42.686;23.142;2024-02-04T05:39:12;93455.97;;;6.72;63.91
11680;BME280;5896;42.686;23.142;2024-02-04T05:41:39;93457.66;;;6.65;63.42
11680;BME280;5896;42.686;23.142;2024-02-04T05:44:04;93444.78;;;6.58;63.83
11680;BME280;5896;42.686;23.142;2024-02-04T05:46:30;93467.63;;;6.53;64.41
11680;BME280;5896;42.686;23.142;2024-02-04T05:48:55;93471.78;;;6.39;64.73
11680;BME280;5896;42.686;23.142;2024-02-04T05:51:22;93460.19;;;6.43;64.61
11680;BME280;5896;42.686;23.142;2024-02-04T05:53:47;93466.50;;;6.62;63.81
11680;BME280;5896;42.686;23.142;2024-02-04T05:56:12;93462.25;;;6.69;63.87
11680;BME280;5896;42.686;23.142;2024-02-04T05:58:39;93487.25;;;6.82;63.07
11680;BME280;5896;42.686;23.142;2024-02-04T06:01:04;93482.34;;;6.87;63.42
11680;BME280;5896;42.686;23.142;2024-02-04T06:03:30;93484.44;;;6.98;62.65
11680;BME280;5896;42.686;23.142;2024-02-04T06:05:56;93481.56;;;6.87;62.98
11680;BME280;5896;42.686;23.142;2024-02-04T06:08:21;93474.09;;;6.92;62.23
11680;BME280;5896;42.686;23.142;2024-02-04T06:10:47;93472.75;;;6.96;62.29
11680;BME280;5896;42.686;23.142;2024-02-04T06:13:12;93468.81;;;6.93;62.46
11680;BME280;5896;42.686;23.142;2024-02-04T06:15:37;93472.69;;;6.89;62.18
11680;BME280;5896;42.686;23.142;2024-02-04T06:18:03;93478.25;;;6.93;61.83
11680;BME280;5896;42.686;23.142;2024-02-04T06:20:28;93503.13;;;6.92;61.76
11680;BME280;5896;42.686;23.142;2024-02-04T06:22:53;93500.19;;;6.95;62.20
11680;BME280;5896;42.686;23.142;2024-02-04T06:25:19;93505.13;;;6.97;61.63
11680;BME280;5896;42.686;23.142;2024-02-04T06:27:44;93501.97;;;6.95;61.96
11680;BME280;5896;42.686;23.142;2024-02-04T06:30:10;93533.13;;;6.92;62.66
11680;BME280;5896;42.686;23.142;2024-02-04T06:32:36;93529.22;;;6.96;62.12
11680;BME280;5896;42.686;23.142;2024-02-04T06:35:01;93524.34;;;7.01;61.84
11680;BME280;5896;42.686;23.142;2024-02-04T06:37:27;93537.19;;;7.01;62.51
11680;BME280;5896;42.686;23.142;2024-02-04T06:39:53;93522.50;;;6.95;61.93
11680;BME280;5896;42.686;23.142;2024-02-04T06:42:18;93519.94;;;6.95;62.32
11680;BME280;5896;42.686;23.142;2024-02-04T06:44:44;93516.16;;;6.91;62.60
11680;BME280;5896;42.686;23.142;2024-02-04T06:47:11;93532.53;;;6.90;62.96
11680;BME280;5896;42.686;23.142;2024-02-04T06:49:39;93520.28;;;6.92;62.75
11680;BME280;5896;42.686;23.142;2024-02-04T06:52:04;93531.47;;;6.84;62.56
11680;BME280;5896;42.686;23.142;2024-02-04T06:54:30;93520.66;;;6.89;62.97
11680;BME280;5896;42.686;23.142;2024-02-04T06:56:55;93540.69;;;6.78;63.16
11680;BME280;5896;42.686;23.142;2024-02-04T06:59:21;93543.25;;;6.78;63.36
11680;BME280;5896;42.686;23.142;2024-02-04T07:01:46;93538.91;;;6.79;63.01
11680;BME280;5896;42.686;23.142;2024-02-04T07:04:12;93530.94;;;6.74;63.76
11680;BME280;5896;42.686;23.142;2024-02-04T07:06:38;93525.94;;;6.66;63.49
11680;BME280;5896;42.686;23.142;2024-02-04T07:09:03;93523.66;;;6.71;63.67
11680;BME280;5896;42.686;23.142;2024-02-04T07:11:29;93518.06;;;6.67;63.85
11680;BME280;5896;42.686;23.142;2024-02-04T07:13:54;93512.31;;;6.65;63.49
11680;BME280;5896;42.686;23.142;2024-02-04T07:16:27;93519.66;;;6.68;63.99
11680;BME280;5896;42.686;23.142;2024-02-04T07:18:52;93512.88;;;6.61;63.84
11680;BME280;5896;42.686;23.142;2024-02-04T07:21:18;93520.06;;;6.87;62.59
11680;BME280;5896;42.686;23.142;2024-02-04T07:23:43;93509.78;;;6.87;62.42
11680;BME280;5896;42.686;23.142;2024-02-04T07:26:09;93510.16;;;6.83;62.85
11680;BME280;5896;42.686;23.142;2024-02-04T07:28:34;93519.06;;;6.88;62.69
11680;BME280;5896;42.686;23.142;2024-02-04T07:31:00;93515.09;;;6.85;62.73
11680;BME280;5896;42.686;23.142;2024-02-04T07:33:25;93526.41;;;6.91;62.47
11680;BME280;5896;42.686;23.142;2024-02-04T07:35:50;93523.84;;;6.91;62.69
11680;BME280;5896;42.686;23.142;2024-02-04T07:38:16;93518.34;;;6.94;62.33
11680;BME280;5896;42.686;23.142;2024-02-04T07:40:41;93522.63;;;6.87;62.43
11680;BME280;5896;42.686;23.142;2024-02-04T07:43:07;93527.41;;;6.90;63.01
11680;BME280;5896;42.686;23.142;2024-02-04T07:45:33;93518.81;;;6.82;62.43
11680;BME280;5896;42.686;23.142;2024-02-04T07:47:59;93536.50;;;6.77;62.65
11680;BME280;5896;42.686;23.142;2024-02-04T07:50:24;93538.72;;;6.80;62.35
11680;BME280;5896;42.686;23.142;2024-02-04T07:52:51;93539.72;;;6.79;62.55
11680;BME280;5896;42.686;23.142;2024-02-04T07:55:17;93541.00;;;6.90;61.69
11680;BME280;5896;42.686;23.142;2024-02-04T07:57:42;93537.91;;;6.95;61.88
11680;BME280;5896;42.686;23.142;2024-02-04T08:00:08;93553.53;;;7.00;61.89
11680;BME280;5896;42.686;23.142;2024-02-04T08:02:36;93547.81;;;6.98;61.30
11680;BME280;5896;42.686;23.142;2024-02-04T08:05:02;93549.44;;;7.05;61.68
11680;BME280;5896;42.686;23.142;2024-02-04T08:07:28;93543.09;;;7.01;61.87
11680;BME280;5896;42.686;23.142;2024-02-04T08:09:53;93550.38;;;6.98;62.62
11680;BME280;5896;42.686;23.142;2024-02-04T08:12:19;93550.47;;;7.11;61.56
11680;BME280;5896;42.686;23.142;2024-02-04T08:14:44;93538.25;;;7.35;60.61
11680;BME280;5896;42.686;23.142;2024-02-04T08:17:10;93541.34;;;7.73;59.11
11680;BME280;5896;42.686;23.142;2024-02-04T08:19:35;93539.41;;;7.82;59.33
11680;BME280;5896;42.686;23.142;2024-02-04T08:22:01;93538.34;;;7.69;59.48
11680;BME280;5896;42.686;23.142;2024-02-04T08:24:26;93539.56;;;7.73;59.32
11680;BME280;5896;42.686;23.142;2024-02-04T08:26:51;93524.06;;;7.95;58.30
11680;BME280;5896;42.686;23.142;2024-02-04T08:29:18;93525.94;;;7.79;58.34
11680;BME280;5896;42.686;23.142;2024-02-04T08:31:43;93544.69;;;7.73;59.22
11680;BME280;5896;42.686;23.142;2024-02-04T08:34:09;93550.22;;;7.70;58.64
11680;BME280;5896;42.686;23.142;2024-02-04T08:36:34;93535.66;;;7.56;59.75
11680;BME280;5896;42.686;23.142;2024-02-04T08:38:59;93542.56;;;7.77;59.26
11680;BME280;5896;42.686;23.142;2024-02-04T08:41:25;93546.97;;;7.90;59.50
11680;BME280;5896;42.686;23.142;2024-02-04T08:43:50;93537.84;;;7.80;58.74
11680;BME280;5896;42.686;23.142;2024-02-04T08:46:15;93535.59;;;8.05;59.09
11680;BME280;5896;42.686;23.142;2024-02-04T08:48:41;93520.59;;;8.09;58.57
11680;BME280;5896;42.686;23.142;2024-02-04T08:51:14;93537.34;;;8.68;57.55
11680;BME280;5896;42.686;23.142;2024-02-04T08:53:41;93533.06;;;9.08;55.32
11680;BME280;5896;42.686;23.142;2024-02-04T08:56:08;93550.81;;;8.76;55.89
11680;BME280;5896;42.686;23.142;2024-02-04T08:58:34;93540.22;;;8.51;56.43
11680;BME280;5896;42.686;23.142;2024-02-04T09:01:02;93546.81;;;8.61;56.83
11680;BME280;5896;42.686;23.142;2024-02-04T09:03:27;93543.97;;;9.04;54.37
11680;BME280;5896;42.686;23.142;2024-02-04T09:05:53;93541.22;;;9.32;54.65
11680;BME280;5896;42.686;23.142;2024-02-04T09:08:18;93551.16;;;9.88;52.63
11680;BME280;5896;42.686;23.142;2024-02-04T09:10:44;93555.72;;;9.79;53.25
11680;BME280;5896;42.686;23.142;2024-02-04T09:13:09;93561.84;;;9.98;52.65
11680;BME280;5896;42.686;23.142;2024-02-04T09:15:35;93543.63;;;9.66;52.89
11680;BME280;5896;42.686;23.142;2024-02-04T09:18:00;93548.19;;;9.71;53.11
11680;BME280;5896;42.686;23.142;2024-02-04T09:20:25;93555.91;;;9.97;52.43
11680;BME280;5896;42.686;23.142;2024-02-04T09:22:51;93556.31;;;10.01;52.47
11680;BME280;5896;42.686;23.142;2024-02-04T09:25:16;93555.91;;;9.91;52.46
11680;BME280;5896;42.686;23.142;2024-02-04T09:27:41;93558.28;;;9.72;52.91
11680;BME280;5896;42.686;23.142;2024-02-04T09:30:07;93540.06;;;9.47;54.19
11680;BME280;5896;42.686;23.142;2024-02-04T09:32:32;93559.25;;;9.25;55.04
11680;BME280;5896;42.686;23.142;2024-02-04T09:34:59;93557.91;;;9.56;53.91
11680;BME280;5896;42.686;23.142;2024-02-04T09:37:24;93557.47;;;10.32;52.11
11680;BME280;5896;42.686;23.142;2024-02-04T09:39:50;93556.50;;;9.99;53.11
11680;BME280;5896;42.686;23.142;2024-02-04T09:42:22;93560.63;;;10.20;52.43
11680;BME280;5896;42.686;23.142;2024-02-04T09:44:52;93554.69;;;10.07;52.73
11680;BME280;5896;42.686;23.142;2024-02-04T09:47:17;93548.31;;;10.22;52.78
11680;BME280;5896;42.686;23.142;2024-02-04T09:49:43;93567.81;;;10.25;52.82
11680;BME280;5896;42.686;23.142;2024-02-04T09:52:09;93563.84;;;10.09;52.33
11680;BME280;5896;42.686;23.142;2024-02-04T09:55:00;93556.88;;;10.10;53.06
11680;BME280;5896;42.686;23.142;2024-02-04T09:57:24;93545.75;;;10.36;53.59
11680;BME280;5896;42.686;23.142;2024-02-04T09:59:49;93538.59;;;10.24;52.56
11680;BME280;5896;42.686;23.142;2024-02-04T10:02:15;93537.06;;;9.97;54.67
11680;BME280;5896;42.686;23.142;2024-02-04T10:04:40;93539.19;;;10.33;53.00
11680;BME280;5896;42.686;23.142;2024-02-04T10:07:06;93553.03;;;10.52;52.87
11680;BME280;5896;42.686;23.142;2024-02-04T10:09:32;93564.44;;;10.83;52.14
11680;BME280;5896;42.686;23.142;2024-02-04T10:11:57;93566.56;;;10.54;53.25
11680;BME280;5896;42.686;23.142;2024-02-04T10:14:23;93551.56;;;9.78;56.03
11680;BME280;5896;42.686;23.142;2024-02-04T10:16:49;93563.06;;;9.82;56.02
11680;BME280;5896;42.686;23.142;2024-02-04T10:19:14;93561.88;;;9.78;55.56
11680;BME280;5896;42.686;23.142;2024-02-04T10:21:40;93556.13;;;9.56;57.13
11680;BME280;5896;42.686;23.142;2024-02-04T10:24:06;93558.28;;;9.39;57.57
11680;BME280;5896;42.686;23.142;2024-02-04T10:26:32;93550.19;;;9.56;56.90
11680;BME280;5896;42.686;23.142;2024-02-04T10:29:00;93567.81;;;9.59;56.98
11680;BME280;5896;42.686;23.142;2024-02-04T10:31:26;93561.47;;;9.55;56.96
11680;BME280;5896;42.686;23.142;2024-02-04T10:33:52;93566.63;;;9.68;56.63
11680;BME280;5896;42.686;23.142;2024-02-04T10:36:19;93540.63;;;9.30;57.87
11680;BME280;5896;42.686;23.142;2024-02-04T10:38:45;93554.50;;;9.35;57.29
11680;BME280;5896;42.686;23.142;2024-02-04T10:41:14;93541.84;;;9.54;57.06
11680;BME280;5896;42.686;23.142;2024-02-04T10:43:42;93549.38;;;9.75;56.82
11680;BME280;5896;42.686;23.142;2024-02-04T10:46:10;93554.34;;;9.63;56.92
11680;BME280;5896;42.686;23.142;2024-02-04T10:48:38;93551.72;;;9.30;58.18
11680;BME280;5896;42.686;23.142;2024-02-04T10:51:14;93543.59;;;9.26;58.10
11680;BME280;5896;42.686;23.142;2024-02-04T10:53:44;93543.44;;;9.48;58.45
11680;BME280;5896;42.686;23.142;2024-02-04T10:56:18;93544.41;;;9.73;57.77
11680;BME280;5896;42.686;23.142;2024-02-04T10:58:46;93549.38;;;9.68;57.47
11680;BME280;5896;42.686;23.142;2024-02-04T11:01:13;93533.13;;;9.41;57.37
11680;BME280;5896;42.686;23.142;2024-02-04T11:03:39;93537.06;;;9.37;58.09
11680;BME280;5896;42.686;23.142;2024-02-04T11:06:07;93517.84;;;9.53;57.53
11680;BME280;5896;42.686;23.142;2024-02-04T11:08:32;93529.97;;;9.59;57.26
11680;BME280;5896;42.686;23.142;2024-02-04T11:10:58;93523.00;;;9.53;56.87
11680;BME280;5896;42.686;23.142;2024-02-04T11:13:24;93532.50;;;9.66;57.23
11680;BME280;5896;42.686;23.142;2024-02-04T11:15:53;93528.56;;;9.63;57.41
11680;BME280;5896;42.686;23.142;2024-02-04T11:21:31;93511.28;;;9.90;56.82
11680;BME280;5896;42.686;23.142;2024-02-04T11:26:56;93503.16;;;9.93;56.23
11680;BME280;5896;42.686;23.142;2024-02-04T11:29:21;93497.81;;;9.82;56.82
11680;BME280;5896;42.686;23.142;2024-02-04T11:31:47;93480.59;;;9.49;57.37
11680;BME280;5896;42.686;23.142;2024-02-04T11:34:13;93483.78;;;9.51;57.06
11680;BME280;5896;42.686;23.142;2024-02-04T11:36:39;93474.22;;;9.58;57.20
11680;BME280;5896;42.686;23.142;2024-02-04T11:39:12;93490.31;;;9.40;58.58
11680;BME280;5896;42.686;23.142;2024-02-04T11:41:47;93506.91;;;10.04;56.93
11680;BME280;5896;42.686;23.142;2024-02-04T11:44:26;93512.88;;;10.69;54.65
11680;BME280;5896;42.686;23.142;2024-02-04T11:46:52;93513.75;;;10.95;53.90
11680;BME280;5896;42.686;23.142;2024-02-04T11:49:18;93507.06;;;10.81;53.29
11680;BME280;5896;42.686;23.142;2024-02-04T11:51:48;93497.91;;;10.85;53.33
11680;BME280;5896;42.686;23.142;2024-02-04T11:54:17;93486.28;;;10.62;53.86
11680;BME280;5896;42.686;23.142;2024-02-04T11:56:49;93492.16;;;10.83;53.20
11680;BME280;5896;42.686;23.142;2024-02-04T11:59:20;93477.78;;;10.93;52.98
11680;BME280;5896;42.686;23.142;2024-02-04T12:01:57;93480.56;;;10.99;52.29
11680;BME280;5896;42.686;23.142;2024-02-04T12:04:23;93493.44;;;10.60;53.18
11680;BME280;5896;42.686;23.142;2024-02-04T12:06:49;93495.81;;;10.68;53.24
11680;BME280;5896;42.686;23.142;2024-02-04T12:09:18;93497.91;;;10.40;54.23
11680;BME280;5896;42.686;23.142;2024-02-04T12:11:44;93497.16;;;10.19;53.64
11680;BME280;5896;42.686;23.142;2024-02-04T12:14:10;93495.03;;;9.90;54.68
11680;BME280;5896;42.686;23.142;2024-02-04T12:16:36;93496.78;;;9.96;55.14
11680;BME280;5896;42.686;23.142;2024-02-04T12:19:04;93484.09;;;10.01;55.57
11680;BME280;5896;42.686;23.142;2024-02-04T12:21:30;93477.72;;;10.10;54.60
11680;BME280;5896;42.686;23.142;2024-02-04T12:23:55;93477.31;;;10.13;55.12
11680;BME280;5896;42.686;23.142;2024-02-04T12:26:22;93479.75;;;9.95;55.59
11680;BME280;5896;42.686;23.142;2024-02-04T12:28:48;93474.53;;;10.15;54.72
11680;BME280;5896;42.686;23.142;2024-02-04T12:31:25;93463.63;;;10.19;54.94
11680;BME280;5896;42.686;23.142;2024-02-04T12:33:58;93472.44;;;9.85;56.50
11680;BME280;5896;42.686;23.142;2024-02-04T12:36:29;93471.59;;;10.05;55.24
11680;BME280;5896;42.686;23.142;2024-02-04T12:38:56;93474.19;;;9.85;54.95
11680;BME280;5896;42.686;23.142;2024-02-04T12:41:22;93465.09;;;9.69;56.69
11680;BME280;5896;42.686;23.142;2024-02-04T12:43:55;93465.44;;;9.99;54.83
11680;BME280;5896;42.686;23.142;2024-02-04T12:46:22;93459.94;;;9.82;55.49
11680;BME280;5896;42.686;23.142;2024-02-04T12:48:51;93465.94;;;9.56;55.72
11680;BME280;5896;42.686;23.142;2024-02-04T12:51:28;93453.66;;;9.45;56.23
11680;BME280;5896;42.686;23.142;2024-02-04T12:56:49;93458.97;;;9.70;56.11
11680;BME280;5896;42.686;23.142;2024-02-04T13:04:22;93458.78;;;9.71;56.16
11680;BME280;5896;42.686;23.142;2024-02-04T13:06:48;93459.34;;;9.73;55.41
11680;BME280;5896;42.686;23.142;2024-02-04T13:09:16;93467.28;;;9.65;55.66
11680;BME280;5896;42.686;23.142;2024-02-04T13:11:42;93462.94;;;9.46;56.40
11680;BME280;5896;42.686;23.142;2024-02-04T13:14:08;93468.09;;;9.39;57.45
11680;BME280;5896;42.686;23.142;2024-02-04T13:16:33;93468.91;;;9.53;56.17
11680;BME280;5896;42.686;23.142;2024-02-04T13:19:01;93459.19;;;9.55;56.73
11680;BME280;5896;42.686;23.142;2024-02-04T13:21:27;93464.13;;;9.63;56.10
11680;BME280;5896;42.686;23.142;2024-02-04T13:23:53;93467.91;;;9.61;55.77